Atlanta, GA

10:46 AM EST on January 25, 2015 (GMT -0500)
Wyntercreek/Meadowcreek | Change Station
CLOSE
Current Station
Personal Weather Station
Location: Dunwoody, GA
Elevation: 1072 ft
Nearby Weather Stations

Elev 1072 ft 33.95 °N, 84.33 °W | Updated 16 seconds ago

Clear
Clear
45.0 °F
Feels Like 45 °F
N
3.0
Wind Variable Wind from NNW
Gusts 4.0 mph

Today
High -- | Low -- °F
--% Chance of Precip.
Yesterday
High -- | Low -- °F
Precip. -- in
7:38 AM 6:00 PM
Waxing Crescent, 33% visible
Pressure 29.97 in
Visibility 10.0 miles
Clouds Clear
Windchill 45 °F
Dew Point 21 °F
Humidity 44%
Rainfall -999.00 in
Snow Depth Not available.
UV 2 out of 12
Pollen 2.70 out of 12
Air Quality Not available.
Flu Activity Not available.
METAR KPDK 251453Z 19005KT 10SM CLR 05/M01 A2993 RMK AO2 SLP148 T00501006 58007 $

More Conditions Fewer Conditions

Pressure 29.97 in
Visibility 10.0 miles
Clouds Clear
Windchill 45 °F
Dew Point 21 °F
Humidity 44%
Rainfall -999.00 in
Snow Depth Not available.
UV 2 out of 12
Pollen 2.70 out of 12
Air Quality Not available.
Flu Activity Not available.
METAR KPDK 251453Z 19005KT 10SM CLR 05/M01 A2993 RMK AO2 SLP148 T00501006 58007 $

More Conditions Fewer Conditions

10-Day Weather Forecast

Almanac

Astronomy

Jan. 25, 2015 Rise Set
Actual Time
Civil Twilight
Nautical Twilight
Astronomical Twilight
Moon
Length of Visible Light
Length of Day
Tomorrow will be .
, % of the Moon is Illuminated

Today's Extremes

State Highs State Lows

Community

WunderPhotos

Upload Photos

1,789,926 photos uploaded!

WunderBlogs® & News

Nearby

Air Quality

  Air Quality AQ Index Pollutant
Not available.

Snow Depth

Station Depth Elevation

Earthquake Activity

City Distance Mag. Time & Date
Minimum magnitude displayed is 2.5.

Coastal Water Temperatures

Place Temperature

Nearby Weather Stations